sensor_id;sensor_type;location;lat;lon;timestamp;temperature;humidity
75769;DHT22;64379;48.888;8.330;2023-04-03T00:01:04;4.50;63.50
75769;DHT22;64379;48.888;8.330;2023-04-03T00:03:30;4.50;63.10
75769;DHT22;64379;48.888;8.330;2023-04-03T00:05:55;4.50;63.70
75769;DHT22;64379;48.888;8.330;2023-04-03T00:08:21;4.50;63.90
75769;DHT22;64379;48.888;8.330;2023-04-03T00:10:47;4.50;64.30
75769;DHT22;64379;48.888;8.330;2023-04-03T00:13:12;4.50;64.20
75769;DHT22;64379;48.888;8.330;2023-04-03T00:15:39;4.50;63.70
75769;DHT22;64379;48.888;8.330;2023-04-03T00:18:05;4.50;64.00
75769;DHT22;64379;48.888;8.330;2023-04-03T00:20:31;4.50;64.30
75769;DHT22;64379;48.888;8.330;2023-04-03T00:22:57;4.50;64.70
75769;DHT22;64379;48.888;8.330;2023-04-03T00:25:22;4.50;64.20
75769;DHT22;64379;48.888;8.330;2023-04-03T00:27:48;4.50;64.60
75769;DHT22;64379;48.888;8.330;2023-04-03T00:30:17;4.50;64.30
75769;DHT22;64379;48.888;8.330;2023-04-03T00:32:43;4.40;63.90
75769;DHT22;64379;48.888;8.330;2023-04-03T00:35:09;4.50;64.00
75769;DHT22;64379;48.888;8.330;2023-04-03T00:37:35;4.40;64.40
75769;DHT22;64379;48.888;8.330;2023-04-03T00:40:01;4.40;64.10
75769;DHT22;64379;48.888;8.330;2023-04-03T00:42:27;4.40;64.70
75769;DHT22;64379;48.888;8.330;2023-04-03T00:47:21;4.40;64.40
75769;DHT22;64379;48.888;8.330;2023-04-03T00:49:47;4.40;64.50
75769;DHT22;64379;48.888;8.330;2023-04-03T00:52:16;4.40;64.00
75769;DHT22;64379;48.888;8.330;2023-04-03T00:54:42;4.40;64.60
75769;DHT22;64379;48.888;8.330;2023-04-03T00:57:10;4.40;64.70
75769;DHT22;64379;48.888;8.330;2023-04-03T00:59:42;4.40;64.40
75769;DHT22;64379;48.888;8.330;2023-04-03T01:02:09;4.40;64.30
75769;DHT22;64379;48.888;8.330;2023-04-03T01:04:40;4.40;64.40
75769;DHT22;64379;48.888;8.330;2023-04-03T01:09:41;4.30;64.60
75769;DHT22;64379;48.888;8.330;2023-04-03T01:12:32;4.40;64.40
75769;DHT22;64379;48.888;8.330;2023-04-03T01:15:00;4.40;64.10
75769;DHT22;64379;48.888;8.330;2023-04-03T01:17:35;4.40;64.50
75769;DHT22;64379;48.888;8.330;2023-04-03T01:25:29;4.20;64.60
75769;DHT22;64379;48.888;8.330;2023-04-03T01:27:55;4.20;64.30
75769;DHT22;64379;48.888;8.330;2023-04-03T01:30:22;4.20;64.90
75769;DHT22;64379;48.888;8.330;2023-04-03T01:32:50;4.20;64.70
75769;DHT22;64379;48.888;8.330;2023-04-03T01:35:16;4.10;65.00
75769;DHT22;64379;48.888;8.330;2023-04-03T01:37:41;4.10;64.30
75769;DHT22;64379;48.888;8.330;2023-04-03T01:40:07;4.10;65.10
75769;DHT22;64379;48.888;8.330;2023-04-03T01:42:33;4.00;65.10
75769;DHT22;64379;48.888;8.330;2023-04-03T01:44:59;4.00;64.70
75769;DHT22;64379;48.888;8.330;2023-04-03T01:47:24;4.00;65.40
75769;DHT22;64379;48.888;8.330;2023-04-03T01:49:50;4.00;65.30
75769;DHT22;64379;48.888;8.330;2023-04-03T01:52:15;4.00;65.20
75769;DHT22;64379;48.888;8.330;2023-04-03T01:54:43;4.00;65.40
75769;DHT22;64379;48.888;8.330;2023-04-03T01:57:09;3.90;65.30
75769;DHT22;64379;48.888;8.330;2023-04-03T01:59:35;3.90;65.10
75769;DHT22;64379;48.888;8.330;2023-04-03T02:02:01;3.90;65.50
75769;DHT22;64379;48.888;8.330;2023-04-03T02:04:26;3.80;65.10
75769;DHT22;64379;48.888;8.330;2023-04-03T02:06:52;3.80;66.00
75769;DHT22;64379;48.888;8.330;2023-04-03T02:09:18;3.70;66.70
75769;DHT22;64379;48.888;8.330;2023-04-03T02:11:43;3.60;66.50
75769;DHT22;64379;48.888;8.330;2023-04-03T02:14:09;3.50;66.90
75769;DHT22;64379;48.888;8.330;2023-04-03T02:16:34;3.50;66.80
75769;DHT22;64379;48.888;8.330;2023-04-03T02:19:00;3.30;67.60
75769;DHT22;64379;48.888;8.330;2023-04-03T02:21:26;3.30;67.90
75769;DHT22;64379;48.888;8.330;2023-04-03T02:23:51;3.10;68.10
75769;DHT22;64379;48.888;8.330;2023-04-03T02:26:17;3.10;67.70
75769;DHT22;64379;48.888;8.330;2023-04-03T02:28:43;3.10;67.70
75769;DHT22;64379;48.888;8.330;2023-04-03T02:31:09;3.10;67.90
75769;DHT22;64379;48.888;8.330;2023-04-03T02:33:36;3.00;68.30
75769;DHT22;64379;48.888;8.330;2023-04-03T02:36:03;2.90;68.50
75769;DHT22;64379;48.888;8.330;2023-04-03T02:38:30;2.90;68.30
75769;DHT22;64379;48.888;8.330;2023-04-03T02:41:07;2.90;68.40
75769;DHT22;64379;48.888;8.330;2023-04-03T02:43:33;2.90;68.50
75769;DHT22;64379;48.888;8.330;2023-04-03T02:45:59;2.80;68.50
75769;DHT22;64379;48.888;8.330;2023-04-03T02:48:24;2.70;68.70
75769;DHT22;64379;48.888;8.330;2023-04-03T02:50:50;2.60;69.10
75769;DHT22;64379;48.888;8.330;2023-04-03T02:53:16;2.50;69.30
75769;DHT22;64379;48.888;8.330;2023-04-03T02:55:42;2.50;69.40
75769;DHT22;64379;48.888;8.330;2023-04-03T02:58:07;2.50;69.30
75769;DHT22;64379;48.888;8.330;2023-04-03T03:00:34;2.40;69.40
75769;DHT22;64379;48.888;8.330;2023-04-03T03:02:59;2.40;69.30
75769;DHT22;64379;48.888;8.330;2023-04-03T03:05:26;2.40;69.50
75769;DHT22;64379;48.888;8.330;2023-04-03T03:07:53;2.30;69.80
75769;DHT22;64379;48.888;8.330;2023-04-03T03:10:18;2.20;70.00
75769;DHT22;64379;48.888;8.330;2023-04-03T03:12:45;2.20;70.00
75769;DHT22;64379;48.888;8.330;2023-04-03T03:15:10;2.10;70.30
75769;DHT22;64379;48.888;8.330;2023-04-03T03:17:36;2.00;70.40
75769;DHT22;64379;48.888;8.330;2023-04-03T03:20:03;2.00;70.70
75769;DHT22;64379;48.888;8.330;2023-04-03T03:22:29;1.90;71.20
75769;DHT22;64379;48.888;8.330;2023-04-03T03:24:54;1.80;71.70
75769;DHT22;64379;48.888;8.330;2023-04-03T03:27:20;1.70;72.00
75769;DHT22;64379;48.888;8.330;2023-04-03T03:29:46;1.70;72.10
75769;DHT22;64379;48.888;8.330;2023-04-03T03:32:12;1.70;72.30
75769;DHT22;64379;48.888;8.330;2023-04-03T03:34:37;1.60;72.60
75769;DHT22;64379;48.888;8.330;2023-04-03T03:37:03;1.60;72.90
75769;DHT22;64379;48.888;8.330;2023-04-03T03:39:28;1.50;73.00
75769;DHT22;64379;48.888;8.330;2023-04-03T03:41:54;1.40;73.30
75769;DHT22;64379;48.888;8.330;2023-04-03T03:44:20;1.40;73.50
75769;DHT22;64379;48.888;8.330;2023-04-03T03:46:46;1.40;73.40
75769;DHT22;64379;48.888;8.330;2023-04-03T03:49:11;1.20;74.00
75769;DHT22;64379;48.888;8.330;2023-04-03T03:51:38;1.20;74.60
75769;DHT22;64379;48.888;8.330;2023-04-03T03:54:04;1.10;74.80
75769;DHT22;64379;48.888;8.330;2023-04-03T03:56:31;1.10;75.40
75769;DHT22;64379;48.888;8.330;2023-04-03T03:58:56;1.00;75.90
75769;DHT22;64379;48.888;8.330;2023-04-03T04:01:23;1.00;75.90
75769;DHT22;64379;48.888;8.330;2023-04-03T04:03:49;0.80;76.30
75769;DHT22;64379;48.888;8.330;2023-04-03T04:06:15;0.80;76.70
75769;DHT22;64379;48.888;8.330;2023-04-03T04:08:41;0.80;77.10
75769;DHT22;64379;48.888;8.330;2023-04-03T04:11:07;0.80;77.00
75769;DHT22;64379;48.888;8.330;2023-04-03T04:13:33;0.80;76.90
75769;DHT22;64379;48.888;8.330;2023-04-03T04:15:58;0.80;77.10
75769;DHT22;64379;48.888;8.330;2023-04-03T04:18:24;0.60;77.30
75769;DHT22;64379;48.888;8.330;2023-04-03T04:20:50;0.60;77.50
75769;DHT22;64379;48.888;8.330;2023-04-03T04:23:17;0.60;77.50
75769;DHT22;64379;48.888;8.330;2023-04-03T04:25:45;0.60;77.50
75769;DHT22;64379;48.888;8.330;2023-04-03T04:28:11;0.70;77.40
75769;DHT22;64379;48.888;8.330;2023-04-03T04:30:37;0.80;76.60
75769;DHT22;64379;48.888;8.330;2023-04-03T04:33:03;0.80;76.50
75769;DHT22;64379;48.888;8.330;2023-04-03T04:35:28;0.80;76.40
75769;DHT22;64379;48.888;8.330;2023-04-03T04:37:54;0.70;76.60
75769;DHT22;64379;48.888;8.330;2023-04-03T04:40:20;0.70;77.00
75769;DHT22;64379;48.888;8.330;2023-04-03T04:42:49;0.60;77.50
75769;DHT22;64379;48.888;8.330;2023-04-03T04:45:14;0.60;77.80
75769;DHT22;64379;48.888;8.330;2023-04-03T04:47:40;0.80;77.50
75769;DHT22;64379;48.888;8.330;2023-04-03T04:50:06;0.80;77.50
75769;DHT22;64379;48.888;8.330;2023-04-03T04:52:32;0.80;77.70
75769;DHT22;64379;48.888;8.330;2023-04-03T04:54:58;0.80;77.80
75769;DHT22;64379;48.888;8.330;2023-04-03T04:57:24;0.80;77.90
75769;DHT22;64379;48.888;8.330;2023-04-03T04:59:49;0.80;78.10
75769;DHT22;64379;48.888;8.330;2023-04-03T05:02:15;0.80;78.30
75769;DHT22;64379;48.888;8.330;2023-04-03T05:04:41;0.80;78.30
75769;DHT22;64379;48.888;8.330;2023-04-03T05:07:30;0.80;78.40
75769;DHT22;64379;48.888;8.330;2023-04-03T05:09:56;0.90;78.40
75769;DHT22;64379;48.888;8.330;2023-04-03T05:15:55;1.00;78.10
75769;DHT22;64379;48.888;8.330;2023-04-03T05:18:24;1.00;78.10
75769;DHT22;64379;48.888;8.330;2023-04-03T05:30:30;1.10;77.90
75769;DHT22;64379;48.888;8.330;2023-04-03T05:32:56;1.10;78.00
75769;DHT22;64379;48.888;8.330;2023-04-03T05:35:24;1.20;78.00
75769;DHT22;64379;48.888;8.330;2023-04-03T05:37:53;1.20;77.50
75769;DHT22;64379;48.888;8.330;2023-04-03T05:40:25;1.30;77.30
75769;DHT22;64379;48.888;8.330;2023-04-03T05:42:54;1.50;76.90
75769;DHT22;64379;48.888;8.330;2023-04-03T05:45:20;1.60;76.40
75769;DHT22;64379;48.888;8.330;2023-04-03T05:51:41;1.80;74.70
75769;DHT22;64379;48.888;8.330;2023-04-03T05:55:04;2.10;74.10
75769;DHT22;64379;48.888;8.330;2023-04-03T05:57:30;2.10;74.10
75769;DHT22;64379;48.888;8.330;2023-04-03T06:00:01;2.10;73.90
75769;DHT22;64379;48.888;8.330;2023-04-03T06:02:27;1.90;73.70
75769;DHT22;64379;48.888;8.330;2023-04-03T06:04:53;1.90;74.20
75769;DHT22;64379;48.888;8.330;2023-04-03T06:07:21;1.90;73.50
75769;DHT22;64379;48.888;8.330;2023-04-03T06:10:00;1.90;73.30
75769;DHT22;64379;48.888;8.330;2023-04-03T06:12:29;2.00;72.60
75769;DHT22;64379;48.888;8.330;2023-04-03T06:14:55;2.10;72.50
75769;DHT22;64379;48.888;8.330;2023-04-03T06:17:24;2.40;70.40
75769;DHT22;64379;48.888;8.330;2023-04-03T06:19:57;2.70;69.70
75769;DHT22;64379;48.888;8.330;2023-04-03T06:22:23;2.90;68.60
75769;DHT22;64379;48.888;8.330;2023-04-03T06:24:53;3.10;68.30
75769;DHT22;64379;48.888;8.330;2023-04-03T06:27:20;3.20;67.80
75769;DHT22;64379;48.888;8.330;2023-04-03T06:29:55;3.10;67.90
75769;DHT22;64379;48.888;8.330;2023-04-03T06:32:20;3.20;67.60
75769;DHT22;64379;48.888;8.330;2023-04-03T06:35:05;3.30;67.90
75769;DHT22;64379;48.888;8.330;2023-04-03T06:41:00;5.00;61.70
75769;DHT22;64379;48.888;8.330;2023-04-03T06:43:29;4.50;61.40
75769;DHT22;64379;48.888;8.330;2023-04-03T06:45:56;5.20;61.20
75769;DHT22;64379;48.888;8.330;2023-04-03T06:48:25;6.10;59.10
75769;DHT22;64379;48.888;8.330;2023-04-03T06:51:05;6.50;57.60
75769;DHT22;64379;48.888;8.330;2023-04-03T06:53:34;6.90;55.90
75769;DHT22;64379;48.888;8.330;2023-04-03T06:55:59;6.40;56.20
75769;DHT22;64379;48.888;8.330;2023-04-03T06:58:25;7.00;55.60
75769;DHT22;64379;48.888;8.330;2023-04-03T07:00:51;7.00;55.60
75769;DHT22;64379;48.888;8.330;2023-04-03T07:03:16;6.50;55.70
75769;DHT22;64379;48.888;8.330;2023-04-03T07:05:42;6.80;56.20
75769;DHT22;64379;48.888;8.330;2023-04-03T07:08:10;7.40;55.00
75769;DHT22;64379;48.888;8.330;2023-04-03T07:10:38;7.60;53.50
75769;DHT22;64379;48.888;8.330;2023-04-03T07:13:03;7.80;53.50
75769;DHT22;64379;48.888;8.330;2023-04-03T07:15:29;7.50;53.60
75769;DHT22;64379;48.888;8.330;2023-04-03T07:17:57;7.50;55.10
75769;DHT22;64379;48.888;8.330;2023-04-03T07:20:23;7.50;53.90
75769;DHT22;64379;48.888;8.330;2023-04-03T07:22:49;7.50;54.80
75769;DHT22;64379;48.888;8.330;2023-04-03T07:25:14;7.50;54.00
75769;DHT22;64379;48.888;8.330;2023-04-03T07:27:40;7.00;56.10
75769;DHT22;64379;48.888;8.330;2023-04-03T07:30:06;7.60;55.00
75769;DHT22;64379;48.888;8.330;2023-04-03T07:32:32;7.60;55.10
75769;DHT22;64379;48.888;8.330;2023-04-03T07:34:57;8.10;53.80
75769;DHT22;64379;48.888;8.330;2023-04-03T07:37:23;8.20;53.50
75769;DHT22;64379;48.888;8.330;2023-04-03T07:39:48;7.60;54.40
75769;DHT22;64379;48.888;8.330;2023-04-03T07:42:14;7.80;55.10
75769;DHT22;64379;48.888;8.330;2023-04-03T07:44:43;7.00;55.60
75769;DHT22;64379;48.888;8.330;2023-04-03T07:47:08;7.30;56.60
75769;DHT22;64379;48.888;8.330;2023-04-03T07:49:34;7.80;54.30
75769;DHT22;64379;48.888;8.330;2023-04-03T07:52:03;7.00;56.30
75769;DHT22;64379;48.888;8.330;2023-04-03T07:54:29;6.00;58.20
75769;DHT22;64379;48.888;8.330;2023-04-03T07:56:55;5.50;59.80
75769;DHT22;64379;48.888;8.330;2023-04-03T07:59:24;6.30;58.90
75769;DHT22;64379;48.888;8.330;2023-04-03T08:01:52;6.50;58.00
75769;DHT22;64379;48.888;8.330;2023-04-03T08:04:18;5.80;58.80
75769;DHT22;64379;48.888;8.330;2023-04-03T08:06:44;5.50;60.40
75769;DHT22;64379;48.888;8.330;2023-04-03T08:09:09;5.50;60.90
75769;DHT22;64379;48.888;8.330;2023-04-03T08:11:35;6.20;59.10
75769;DHT22;64379;48.888;8.330;2023-04-03T08:14:02;6.40;58.30
75769;DHT22;64379;48.888;8.330;2023-04-03T08:16:27;6.50;58.00
75769;DHT22;64379;48.888;8.330;2023-04-03T08:18:54;6.90;58.00
75769;DHT22;64379;48.888;8.330;2023-04-03T08:21:20;7.00;57.80
75769;DHT22;64379;48.888;8.330;2023-04-03T08:23:49;6.90;57.50
75769;DHT22;64379;48.888;8.330;2023-04-03T08:26:18;6.70;56.70
75769;DHT22;64379;48.888;8.330;2023-04-03T08:28:44;6.10;58.50
75769;DHT22;64379;48.888;8.330;2023-04-03T08:31:12;6.20;58.40
75769;DHT22;64379;48.888;8.330;2023-04-03T08:33:39;6.80;57.70
75769;DHT22;64379;48.888;8.330;2023-04-03T08:36:07;6.80;56.10
75769;DHT22;64379;48.888;8.330;2023-04-03T08:38:34;6.10;56.40
75769;DHT22;64379;48.888;8.330;2023-04-03T08:41:11;5.90;58.00
75769;DHT22;64379;48.888;8.330;2023-04-03T08:46:17;5.60;57.40
75769;DHT22;64379;48.888;8.330;2023-04-03T08:48:44;5.90;58.20
75769;DHT22;64379;48.888;8.330;2023-04-03T08:51:14;6.70;55.80
75769;DHT22;64379;48.888;8.330;2023-04-03T08:53:51;6.50;55.00
75769;DHT22;64379;48.888;8.330;2023-04-03T08:56:21;5.90;55.70
75769;DHT22;64379;48.888;8.330;2023-04-03T08:58:59;5.70;56.10
75769;DHT22;64379;48.888;8.330;2023-04-03T09:01:39;5.80;56.80
75769;DHT22;64379;48.888;8.330;2023-04-03T09:04:16;5.80;55.90
75769;DHT22;64379;48.888;8.330;2023-04-03T09:06:53;5.80;56.50
75769;DHT22;64379;48.888;8.330;2023-04-03T09:12:21;5.80;57.10
75769;DHT22;64379;48.888;8.330;2023-04-03T09:23:39;5.90;55.00
75769;DHT22;64379;48.888;8.330;2023-04-03T09:26:14;6.10;54.40
75769;DHT22;64379;48.888;8.330;2023-04-03T09:28:42;6.10;54.60
75769;DHT22;64379;48.888;8.330;2023-04-03T09:31:27;6.40;55.30
75769;DHT22;64379;48.888;8.330;2023-04-03T09:33:56;6.50;54.20
75769;DHT22;64379;48.888;8.330;2023-04-03T09:36:46;6.60;53.70
75769;DHT22;64379;48.888;8.330;2023-04-03T09:39:23;6.60;54.60
75769;DHT22;64379;48.888;8.330;2023-04-03T09:42:01;6.50;54.90
75769;DHT22;64379;48.888;8.330;2023-04-03T09:44:33;6.40;55.80
75769;DHT22;64379;48.888;8.330;2023-04-03T09:46:59;6.50;55.80
75769;DHT22;64379;48.888;8.330;2023-04-03T09:49:26;6.70;55.40
75769;DHT22;64379;48.888;8.330;2023-04-03T09:51:52;6.80;54.60
75769;DHT22;64379;48.888;8.330;2023-04-03T09:54:36;7.00;53.30
75769;DHT22;64379;48.888;8.330;2023-04-03T09:57:12;7.60;54.00
75769;DHT22;64379;48.888;8.330;2023-04-03T09:59:46;8.00;53.50
75769;DHT22;64379;48.888;8.330;2023-04-03T10:04:41;7.50;53.40
75769;DHT22;64379;48.888;8.330;2023-04-03T10:10:01;7.10;53.20
75769;DHT22;64379;48.888;8.330;2023-04-03T10:12:27;7.30;53.20
75769;DHT22;64379;48.888;8.330;2023-04-03T10:22:55;8.50;49.10
75769;DHT22;64379;48.888;8.330;2023-04-03T10:25:36;8.40;48.60
75769;DHT22;64379;48.888;8.330;2023-04-03T10:28:23;7.80;49.70
75769;DHT22;64379;48.888;8.330;2023-04-03T10:33:42;7.60;49.70
75769;DHT22;64379;48.888;8.330;2023-04-03T10:52:27;8.30;50.20
75769;DHT22;64379;48.888;8.330;2023-04-03T10:57:46;8.50;48.80
75769;DHT22;64379;48.888;8.330;2023-04-03T11:00:21;8.50;49.80
75769;DHT22;64379;48.888;8.330;2023-04-03T11:02:59;8.20;47.50
75769;DHT22;64379;48.888;8.330;2023-04-03T11:08:18;8.50;47.60
75769;DHT22;64379;48.888;8.330;2023-04-03T11:10:50;8.60;46.90
75769;DHT22;64379;48.888;8.330;2023-04-03T11:15:58;9.00;45.10
75769;DHT22;64379;48.888;8.330;2023-04-03T11:18:40;8.80;46.00
75769;DHT22;64379;48.888;8.330;2023-04-03T11:21:21;8.60;47.00
75769;DHT22;64379;48.888;8.330;2023-04-03T11:23:48;9.00;46.70
75769;DHT22;64379;48.888;8.330;2023-04-03T11:26:22;9.00;45.00
75769;DHT22;64379;48.888;8.330;2023-04-03T11:29:02;9.00;46.40
75769;DHT22;64379;48.888;8.330;2023-04-03T11:36:45;8.50;46.50
75769;DHT22;64379;48.888;8.330;2023-04-03T11:41:44;8.30;46.90
75769;DHT22;64379;48.888;8.330;2023-04-03T11:44:46;8.40;47.20
75769;DHT22;64379;48.888;8.330;2023-04-03T12:05:52;8.40;46.00
75769;DHT22;64379;48.888;8.330;2023-04-03T12:08:28;8.30;45.70
75769;DHT22;64379;48.888;8.330;2023-04-03T12:11:31;8.50;46.10
75769;DHT22;64379;48.888;8.330;2023-04-03T12:29:23;7.80;47.90
75769;DHT22;64379;48.888;8.330;2023-04-03T12:37:44;8.20;48.00
75769;DHT22;64379;48.888;8.330;2023-04-03T12:48:18;7.40;50.00
75769;DHT22;64379;48.888;8.330;2023-04-03T12:50:46;7.50;49.40
75769;DHT22;64379;48.888;8.330;2023-04-03T12:53:23;7.80;48.90
75769;DHT22;64379;48.888;8.330;2023-04-03T12:55:57;8.00;47.70
75769;DHT22;64379;48.888;8.330;2023-04-03T12:58:42;8.00;47.60
75769;DHT22;64379;48.888;8.330;2023-04-03T13:01:14;8.00;48.30
75769;DHT22;64379;48.888;8.330;2023-04-03T13:03:45;7.80;48.00
75769;DHT22;64379;48.888;8.330;2023-04-03T13:06:17;7.80;49.10
75769;DHT22;64379;48.888;8.330;2023-04-03T13:11:16;8.00;48.80
75769;DHT22;64379;48.888;8.330;2023-04-03T13:13:56;8.00;49.30
75769;DHT22;64379;48.888;8.330;2023-04-03T13:16:22;7.80;47.60
75769;DHT22;64379;48.888;8.330;2023-04-03T13:18:53;8.00;48.60
75769;DHT22;64379;48.888;8.330;2023-04-03T13:21:22;7.90;47.90
75769;DHT22;64379;48.888;8.330;2023-04-03T13:23:50;7.90;47.80
75769;DHT22;64379;48.888;8.330;2023-04-03T13:26:18;8.00;48.20
75769;DHT22;64379;48.888;8.330;2023-04-03T13:28:46;7.90;47.70
75769;DHT22;64379;48.888;8.330;2023-04-03T13:33:54;7.80;48.80
75769;DHT22;64379;48.888;8.330;2023-04-03T13:36:23;7.60;49.30
75769;DHT22;64379;48.888;8.330;2023-04-03T13:39:23;7.50;48.00
75769;DHT22;64379;48.888;8.330;2023-04-03T13:41:52;7.60;48.50
75769;DHT22;64379;48.888;8.330;2023-04-03T13:46:56;7.80;47.50
75769;DHT22;64379;48.888;8.330;2023-04-03T13:49:33;8.00;48.70
75769;DHT22;64379;48.888;8.330;2023-04-03T13:52:02;8.00;46.90
75769;DHT22;64379;48.888;8.330;2023-04-03T13:54:48;7.90;47.30
75769;DHT22;64379;48.888;8.330;2023-04-03T13:57:16;7.60;47.50
75769;DHT22;64379;48.888;8.330;2023-04-03T13:59:42;7.50;47.30
75769;DHT22;64379;48.888;8.330;2023-04-03T14:07:03;7.30;47.30
75769;DHT22;64379;48.888;8.330;2023-04-03T14:09:29;7.40;47.80
75769;DHT22;64379;48.888;8.330;2023-04-03T14:12:02;7.50;48.50
75769;DHT22;64379;48.888;8.330;2023-04-03T14:14:33;7.60;47.70
75769;DHT22;64379;48.888;8.330;2023-04-03T14:17:01;7.60;47.70
75769;DHT22;64379;48.888;8.330;2023-04-03T14:19:28;7.80;48.00
75769;DHT22;64379;48.888;8.330;2023-04-03T14:21:55;7.70;46.70
75769;DHT22;64379;48.888;8.330;2023-04-03T14:24:22;7.80;47.80
75769;DHT22;64379;48.888;8.330;2023-04-03T14:26:50;7.80;46.40
75769;DHT22;64379;48.888;8.330;2023-04-03T14:29:16;8.00;47.10
75769;DHT22;64379;48.888;8.330;2023-04-03T14:31:44;8.00;45.40
75769;DHT22;64379;48.888;8.330;2023-04-03T14:34:12;8.20;46.50
75769;DHT22;64379;48.888;8.330;2023-04-03T14:36:39;8.40;45.80
75769;DHT22;64379;48.888;8.330;2023-04-03T14:39:07;8.50;46.10
75769;DHT22;64379;48.888;8.330;2023-04-03T14:41:34;8.00;47.10
75769;DHT22;64379;48.888;8.330;2023-04-03T14:44:00;7.80;45.80
75769;DHT22;64379;48.888;8.330;2023-04-03T14:46:35;7.70;46.20
75769;DHT22;64379;48.888;8.330;2023-04-03T14:49:02;7.60;46.60
75769;DHT22;64379;48.888;8.330;2023-04-03T14:51:28;7.70;46.80
75769;DHT22;64379;48.888;8.330;2023-04-03T14:53:53;7.60;46.80
75769;DHT22;64379;48.888;8.330;2023-04-03T14:56:28;7.60;46.60
75769;DHT22;64379;48.888;8.330;2023-04-03T14:58:59;7.60;46.90
75769;DHT22;64379;48.888;8.330;2023-04-03T15:01:27;7.70;47.10
75769;DHT22;64379;48.888;8.330;2023-04-03T15:03:53;7.80;47.40
75769;DHT22;64379;48.888;8.330;2023-04-03T15:06:19;7.80;46.30
75769;DHT22;64379;48.888;8.330;2023-04-03T15:08:46;7.80;46.60
75769;DHT22;64379;48.888;8.330;2023-04-03T15:11:13;8.00;46.00
75769;DHT22;64379;48.888;8.330;2023-04-03T15:13:39;8.10;46.40
75769;DHT22;64379;48.888;8.330;2023-04-03T15:16:18;8.00;45.70
75769;DHT22;64379;48.888;8.330;2023-04-03T15:18:45;8.00;47.10
75769;DHT22;64379;48.888;8.330;2023-04-03T15:21:11;7.80;46.40
75769;DHT22;64379;48.888;8.330;2023-04-03T15:23:37;7.80;46.50
75769;DHT22;64379;48.888;8.330;2023-04-03T15:26:03;7.80;46.60
75769;DHT22;64379;48.888;8.330;2023-04-03T15:28:33;7.70;45.80
75769;DHT22;64379;48.888;8.330;2023-04-03T15:31:00;7.50;46.40
75769;DHT22;64379;48.888;8.330;2023-04-03T15:33:26;7.50;46.90
75769;DHT22;64379;48.888;8.330;2023-04-03T15:35:52;7.60;47.00
75769;DHT22;64379;48.888;8.330;2023-04-03T15:38:18;7.60;46.40
75769;DHT22;64379;48.888;8.330;2023-04-03T15:40:43;8.00;46.50
75769;DHT22;64379;48.888;8.330;2023-04-03T15:43:09;8.40;45.70
75769;DHT22;64379;48.888;8.330;2023-04-03T15:45:36;8.60;45.20
75769;DHT22;64379;48.888;8.330;2023-04-03T15:48:03;8.80;44.00
75769;DHT22;64379;48.888;8.330;2023-04-03T15:50:30;8.30;45.40
75769;DHT22;64379;48.888;8.330;2023-04-03T15:52:56;7.80;45.00
75769;DHT22;64379;48.888;8.330;2023-04-03T15:55:24;7.40;45.70
75769;DHT22;64379;48.888;8.330;2023-04-03T15:57:51;7.20;46.20
75769;DHT22;64379;48.888;8.330;2023-04-03T16:00:17;7.10;45.30
75769;DHT22;64379;48.888;8.330;2023-04-03T16:02:46;6.90;44.90
75769;DHT22;64379;48.888;8.330;2023-04-03T16:05:13;6.90;46.10
75769;DHT22;64379;48.888;8.330;2023-04-03T16:07:40;6.90;46.00
75769;DHT22;64379;48.888;8.330;2023-04-03T16:10:08;7.20;45.60
75769;DHT22;64379;48.888;8.330;2023-04-03T16:12:34;7.50;44.70
75769;DHT22;64379;48.888;8.330;2023-04-03T16:15:00;7.80;43.60
75769;DHT22;64379;48.888;8.330;2023-04-03T16:17:27;8.00;42.60
75769;DHT22;64379;48.888;8.330;2023-04-03T16:19:53;8.00;43.20
75769;DHT22;64379;48.888;8.330;2023-04-03T16:22:20;7.90;45.20
75769;DHT22;64379;48.888;8.330;2023-04-03T16:24:46;7.50;44.30
75769;DHT22;64379;48.888;8.330;2023-04-03T16:27:12;7.20;44.80
75769;DHT22;64379;48.888;8.330;2023-04-03T16:29:37;7.00;44.90
75769;DHT22;64379;48.888;8.330;2023-04-03T16:32:03;7.00;44.70
75769;DHT22;64379;48.888;8.330;2023-04-03T16:34:29;6.80;45.40
75769;DHT22;64379;48.888;8.330;2023-04-03T16:36:57;6.70;44.70
75769;DHT22;64379;48.888;8.330;2023-04-03T16:39:23;6.60;45.80
75769;DHT22;64379;48.888;8.330;2023-04-03T16:41:48;6.70;44.70
75769;DHT22;64379;48.888;8.330;2023-04-03T16:44:14;7.00;45.40
75769;DHT22;64379;48.888;8.330;2023-04-03T16:46:39;7.20;44.20
75769;DHT22;64379;48.888;8.330;2023-04-03T16:49:05;7.50;45.30
75769;DHT22;64379;48.888;8.330;2023-04-03T16:51:30;7.60;44.40
75769;DHT22;64379;48.888;8.330;2023-04-03T16:53:57;7.60;44.10
75769;DHT22;64379;48.888;8.330;2023-04-03T16:56:26;7.50;44.90
75769;DHT22;64379;48.888;8.330;2023-04-03T16:58:55;7.40;43.50
75769;DHT22;64379;48.888;8.330;2023-04-03T17:01:21;7.20;44.50
75769;DHT22;64379;48.888;8.330;2023-04-03T17:03:47;7.20;43.90
75769;DHT22;64379;48.888;8.330;2023-04-03T17:06:17;7.10;44.10
75769;DHT22;64379;48.888;8.330;2023-04-03T17:08:45;7.00;44.80
75769;DHT22;64379;48.888;8.330;2023-04-03T17:11:11;7.00;44.20
75769;DHT22;64379;48.888;8.330;2023-04-03T17:13:37;7.00;45.00
75769;DHT22;64379;48.888;8.330;2023-04-03T17:16:04;6.90;45.10
75769;DHT22;64379;48.888;8.330;2023-04-03T17:18:31;6.90;45.20
75769;DHT22;64379;48.888;8.330;2023-04-03T17:20:57;6.70;45.70
75769;DHT22;64379;48.888;8.330;2023-04-03T17:23:25;6.60;46.10
75769;DHT22;64379;48.888;8.330;2023-04-03T17:25:51;6.50;45.90
75769;DHT22;64379;48.888;8.330;2023-04-03T17:28:19;6.50;45.40
75769;DHT22;64379;48.888;8.330;2023-04-03T17:30:47;6.40;46.50
75769;DHT22;64379;48.888;8.330;2023-04-03T17:33:13;6.40;46.20
75769;DHT22;64379;48.888;8.330;2023-04-03T17:35:38;6.40;46.70
75769;DHT22;64379;48.888;8.330;2023-04-03T17:38:04;6.40;45.90
75769;DHT22;64379;48.888;8.330;2023-04-03T17:40:29;6.50;45.90
75769;DHT22;64379;48.888;8.330;2023-04-03T17:42:55;6.50;45.00
75769;DHT22;64379;48.888;8.330;2023-04-03T17:45:21;6.40;46.00
75769;DHT22;64379;48.888;8.330;2023-04-03T17:47:46;6.40;46.00
75769;DHT22;64379;48.888;8.330;2023-04-03T17:50:14;6.30;46.00
75769;DHT22;64379;48.888;8.330;2023-04-03T17:52:40;6.20;46.20
75769;DHT22;64379;48.888;8.330;2023-04-03T17:55:06;6.20;46.40
75769;DHT22;64379;48.888;8.330;2023-04-03T17:57:32;6.00;47.50
75769;DHT22;64379;48.888;8.330;2023-04-03T17:59:57;5.90;48.00
75769;DHT22;64379;48.888;8.330;2023-04-03T18:02:23;5.70;48.20
75769;DHT22;64379;48.888;8.330;2023-04-03T18:04:52;5.70;47.80
75769;DHT22;64379;48.888;8.330;2023-04-03T18:07:18;5.80;48.10
75769;DHT22;64379;48.888;8.330;2023-04-03T18:09:46;5.70;48.20
75769;DHT22;64379;48.888;8.330;2023-04-03T18:12:12;5.80;48.00
75769;DHT22;64379;48.888;8.330;2023-04-03T18:14:39;5.80;47.40
75769;DHT22;64379;48.888;8.330;2023-04-03T18:17:06;5.80;47.70
75769;DHT22;64379;48.888;8.330;2023-04-03T18:19:32;5.70;48.10
75769;DHT22;64379;48.888;8.330;2023-04-03T18:22:01;5.60;48.90
75769;DHT22;64379;48.888;8.330;2023-04-03T18:24:28;5.50;49.50
75769;DHT22;64379;48.888;8.330;2023-04-03T18:27:03;5.40;49.10